Time;durP1;ratioP1;P1;durP2;ratioP2;P2;SDS_P1;SDS_P2;PMS_P1;PMS_P2;Temp;Humidity;BMP_temperature;BMP_pressure;BME280_temperature;BME280_humidity;BME280_pressure;Samples;Min_cycle;Max_cycle;Signal;HPM_P1;HPM_P2
2021/09/13 00:01:57;;;;;;;;;;;;;;;20.60;56.53;100538.75;5115697;28;806;-50
2021/09/13 00:04:23;;;;;;;;;;;;;;;20.77;56.37;100543.69;5115606;28;846;-59
2021/09/13 00:06:50;;;;;;;;;;;;;;;20.68;56.78;100540.03;5115626;28;814;-59
2021/09/13 00:09:16;;;;;;;;;;;;;;;20.90;56.32;100533.78;5115732;28;1088;-57
2021/09/13 00:11:41;;;;;;;;;;;;;;;20.77;56.71;100540.13;5115700;28;918;-59
2021/09/13 00:14:07;;;;;;;;;;;;;;;20.94;56.73;100525.66;5126858;27;889;-59
2021/09/13 00:16:34;;;;;;;;;;;;;;;20.70;57.64;100526.72;5117627;28;1906;-58
2021/09/13 00:19:00;;;;;;;;;;;;;;;20.94;56.86;100525.66;5119575;28;818;-57
2021/09/13 00:21:26;;;;;;;;;;;;;;;21.01;56.65;100526.06;5127394;27;1612;-47
2021/09/13 00:23:51;;;;;;;;;;;;;;;20.62;56.55;100531.00;5139837;27;763;-58
2021/09/13 00:26:17;;;;;;;;;;;;;;;20.18;55.33;100527.66;5139770;27;747;-58
2021/09/13 00:28:43;;;;;;;;;;;;;;;19.79;53.41;100531.66;5136706;27;980;-58
2021/09/13 00:31:10;;;;;;;;;;;;;;;19.33;51.87;100546.13;5119210;28;803;-47
2021/09/13 00:33:36;;;;;;;;;;;;;;;18.77;50.73;100523.69;5119342;28;779;-55
2021/09/13 00:36:03;;;;;;;;;;;;;;;18.41;50.03;100537.03;5117662;28;1909;-57
2021/09/13 00:38:28;;;;;;;;;;;;;;;18.42;50.15;100534.00;5118786;28;747;-58
2021/09/13 00:40:54;;;;;;;;;;;;;;;18.73;51.00;100530.91;5119119;28;827;-59
2021/09/13 00:43:21;;;;;;;;;;;;;;;19.13;53.76;100526.00;5118750;27;807;-59
2021/09/13 00:45:47;;;;;;;;;;;;;;;19.53;55.17;100522.13;5119188;27;949;-58
2021/09/13 00:48:13;;;;;;;;;;;;;;;20.12;55.58;100520.59;5118944;28;752;-49
2021/09/13 00:50:39;;;;;;;;;;;;;;;20.45;56.36;100520.53;5118420;28;763;-58
2021/09/13 00:53:04;;;;;;;;;;;;;;;20.65;56.58;100524.00;5117770;28;924;-59
2021/09/13 00:55:29;;;;;;;;;;;;;;;20.84;57.12;100532.22;5100857;28;1902;-58
2021/09/13 00:57:55;;;;;;;;;;;;;;;20.88;57.51;100526.91;5117132;27;869;-52
2021/09/13 01:00:21;;;;;;;;;;;;;;;21.05;57.41;100526.28;5137316;27;961;-58
2021/09/13 01:02:47;;;;;;;;;;;;;;;21.36;56.94;100538.28;5158437;27;1136;-58
2021/09/13 01:05:13;;;;;;;;;;;;;;;21.51;56.61;100537.09;5159540;27;845;-58
2021/09/13 01:07:38;;;;;;;;;;;;;;;21.56;56.32;100541.72;5159959;27;818;-58
2021/09/13 01:10:04;;;;;;;;;;;;;;;20.79;55.81;100546.97;5160074;27;1156;-58
2021/09/13 01:12:30;;;;;;;;;;;;;;;20.24;54.41;100544.94;5141231;27;1124;-58
2021/09/13 01:14:55;;;;;;;;;;;;;;;19.53;52.82;100533.16;5128080;27;1270;-48
2021/09/13 01:17:21;;;;;;;;;;;;;;;19.22;51.49;100539.13;5137644;27;1972;-58
2021/09/13 01:19:46;;;;;;;;;;;;;;;18.84;50.08;100539.03;5137355;27;2004;-50
2021/09/13 01:22:12;;;;;;;;;;;;;;;18.39;50.08;100534.59;5137959;27;1621;-57
2021/09/13 01:24:52;;;;;;;;;;;;;;;18.51;51.41;100531.44;5137474;27;1229;-58
2021/09/13 01:27:18;;;;;;;;;;;;;;;19.10;53.89;100540.38;5136343;27;775;-58
2021/09/13 01:29:44;;;;;;;;;;;;;;;19.48;55.79;100543.13;5137152;27;1212;-57
2021/09/13 01:32:10;;;;;;;;;;;;;;;19.83;56.99;100540.97;5120772;27;1121;-58
2021/09/13 01:34:56;;;;;;;;;;;;;;;20.10;57.67;100544.91;5137241;27;1132;-58
2021/09/13 01:37:23;;;;;;;;;;;;;;;20.51;57.73;100543.38;5137569;27;1917;-59
2021/09/13 01:39:50;;;;;;;;;;;;;;;20.81;57.62;100539.19;5137623;27;1105;-58
2021/09/13 01:42:16;;;;;;;;;;;;;;;21.03;57.76;100541.22;5139761;27;1508;-47
2021/09/13 01:44:42;;;;;;;;;;;;;;;21.41;57.03;100548.41;5141566;27;1171;-59
2021/09/13 01:47:08;;;;;;;;;;;;;;;21.50;57.19;100542.94;5146350;27;1140;-47
2021/09/13 01:49:33;;;;;;;;;;;;;;;21.75;56.52;100546.25;5157522;27;823;-58
2021/09/13 01:51:59;;;;;;;;;;;;;;;21.29;57.24;100548.13;5158235;27;1207;-58
2021/09/13 01:54:24;;;;;;;;;;;;;;;20.61;56.41;100548.69;5157766;27;1139;-58
2021/09/13 01:56:51;;;;;;;;;;;;;;;20.03;55.06;100546.44;5157843;27;1913;-59
2021/09/13 01:59:34;;;;;;;;;;;;;;;19.33;52.91;100540.59;5140970;27;1507;-58
2021/09/13 02:02:00;;;;;;;;;;;;;;;19.12;50.67;100548.34;5137062;27;1176;-59
2021/09/13 02:04:26;;;;;;;;;;;;;;;18.65;50.08;100545.34;5136863;27;1088;-48
2021/09/13 02:06:52;;;;;;;;;;;;;;;18.66;49.58;100546.16;5137977;27;817;-59
2021/09/13 02:09:17;;;;;;;;;;;;;;;18.76;49.88;100544.09;5153453;27;1315;-47
2021/09/13 02:11:43;;;;;;;;;;;;;;;18.80;51.62;100552.56;5148039;27;1329;-59
2021/09/13 02:14:08;;;;;;;;;;;;;;;19.08;53.18;100553.66;5129377;27;1149;-47
2021/09/13 02:16:34;;;;;;;;;;;;;;;19.52;54.52;100554.41;5133335;27;1985;-58
2021/09/13 02:19:02;;;;;;;;;;;;;;;19.82;56.00;100538.50;5157042;27;1087;-59
2021/09/13 02:21:27;;;;;;;;;;;;;;;20.10;56.93;100536.63;5150118;27;1524;-58
2021/09/13 02:23:54;;;;;;;;;;;;;;;20.39;57.21;100538.34;5136534;27;1239;-47
2021/09/13 02:26:21;;;;;;;;;;;;;;;20.89;56.58;100539.59;5136498;27;1235;-59
2021/09/13 02:28:46;;;;;;;;;;;;;;;21.09;56.80;100544.69;5132208;27;1104;-58
2021/09/13 02:31:12;;;;;;;;;;;;;;;21.00;57.61;100532.75;5118116;27;783;-59
2021/09/13 02:33:37;;;;;;;;;;;;;;;21.48;56.67;100534.94;5147384;27;1036;-49
2021/09/13 02:36:04;;;;;;;;;;;;;;;21.52;56.92;100541.53;5157054;27;1960;-59
2021/09/13 02:38:29;;;;;;;;;;;;;;;21.37;57.65;100539.09;5139443;27;1235;-48
2021/09/13 02:40:55;;;;;;;;;;;;;;;21.06;57.50;100544.50;5156137;27;1119;-54
2021/09/13 02:43:21;;;;;;;;;;;;;;;20.46;56.56;100544.25;5158122;27;754;-58
2021/09/13 02:45:46;;;;;;;;;;;;;;;19.79;54.69;100550.13;5135983;27;1278;-58
2021/09/13 02:48:12;;;;;;;;;;;;;;;19.21;53.34;100541.06;5144011;27;1552;-59
2021/09/13 02:50:38;;;;;;;;;;;;;;;18.89;51.29;100541.78;5142563;27;1198;-58
2021/09/13 02:53:03;;;;;;;;;;;;;;;18.58;49.88;100551.19;5136377;27;1100;-59
2021/09/13 02:55:31;;;;;;;;;;;;;;;18.45;49.51;100546.38;5135929;27;1955;-58
2021/09/13 02:57:57;;;;;;;;;;;;;;;18.62;51.86;100548.66;5136172;27;1263;-48
2021/09/13 03:00:22;;;;;;;;;;;;;;;19.14;54.27;100548.88;5135008;27;1236;-58
2021/09/13 03:02:53;;;;;;;;;;;;;;;19.54;55.85;100557.66;5135738;27;1184;-58
2021/09/13 03:05:18;;;;;;;;;;;;;;;20.06;56.21;100546.66;5135989;27;1093;-58
2021/09/13 03:07:45;;;;;;;;;;;;;;;20.36;57.00;100550.00;5135939;27;1258;-52
2021/09/13 03:10:11;;;;;;;;;;;;;;;20.60;57.26;100554.53;5136554;27;1038;-58
2021/09/13 03:12:36;;;;;;;;;;;;;;;20.81;57.32;100555.75;5143862;27;1490;-58
2021/09/13 03:15:06;;;;;;;;;;;;;;;20.93;57.68;100554.41;5140014;27;1240;-59
2021/09/13 03:17:31;;;;;;;;;;;;;;;21.30;57.05;100549.75;5143215;27;1909;-58
2021/09/13 03:19:59;;;;;;;;;;;;;;;21.28;57.46;100554.78;5145385;27;1352;-58
2021/09/13 03:22:25;;;;;;;;;;;;;;;21.11;58.59;100556.25;5141813;27;1505;-59
2021/09/13 03:24:51;;;;;;;;;;;;;;;21.44;57.61;100556.06;5146098;27;1251;-46
2021/09/13 03:27:17;;;;;;;;;;;;;;;21.06;57.82;100566.63;5150232;27;1278;-48
2021/09/13 03:29:42;;;;;;;;;;;;;;;20.59;56.26;100563.91;5125326;27;952;-50
2021/09/13 03:32:08;;;;;;;;;;;;;;;19.86;54.07;100566.34;5104776;27;1523;-49
2021/09/13 03:34:34;;;;;;;;;;;;;;;19.12;51.59;100560.19;5137260;27;1144;-51
2021/09/13 03:37:01;;;;;;;;;;;;;;;18.48;49.97;100573.31;5139974;27;1913;-57
2021/09/13 03:39:30;;;;;;;;;;;;;;;18.13;48.28;100565.13;5142769;27;1367;-47
2021/09/13 03:41:57;;;;;;;;;;;;;;;18.23;48.93;100571.63;5135598;28;1295;-47
2021/09/13 03:44:24;;;;;;;;;;;;;;;18.66;52.51;100566.22;5135850;27;1411;-47
2021/09/13 03:46:53;;;;;;;;;;;;;;;19.12;54.64;100562.94;5141999;27;1188;-48
2021/09/13 03:49:39;;;;;;;;;;;;;;;19.59;56.12;100573.34;5156537;27;970;-48
2021/09/13 03:52:08;;;;;;;;;;;;;;;19.79;57.50;100569.44;5143825;27;1095;-50
2021/09/13 03:54:35;;;;;;;;;;;;;;;20.37;57.23;100573.72;5140528;27;1537;-51
2021/09/13 03:57:01;;;;;;;;;;;;;;;20.72;56.75;100565.91;5145087;27;1917;-58
2021/09/13 03:59:27;;;;;;;;;;;;;;;20.91;57.01;100571.31;5145232;27;1481;-60
2021/09/13 04:01:53;;;;;;;;;;;;;;;21.08;57.20;100570.69;5159766;27;1156;-53
2021/09/13 04:04:22;;;;;;;;;;;;;;;21.01;57.77;100570.28;5159976;27;1108;-47
2021/09/13 04:06:52;;;;;;;;;;;;;;;21.41;56.94;100567.75;5160671;27;1265;-46
2021/09/13 04:12:07;;;;;;;;;;;;;;;21.74;56.70;100575.06;5159947;27;1162;-48
2021/09/13 04:14:55;;;;;;;;;;;;;;;21.31;57.95;100581.84;5134430;27;1221;-47
2021/09/13 04:17:41;;;;;;;;;;;;;;;20.80;57.89;100576.25;5107392;28;1996;-50
2021/09/13 04:20:26;;;;;;;;;;;;;;;20.17;54.82;100570.22;5119118;28;959;-50
2021/09/13 04:23:10;;;;;;;;;;;;;;;19.45;51.38;100574.06;5118341;28;1279;-48
2021/09/13 04:25:54;;;;;;;;;;;;;;;18.68;49.79;100568.69;5118202;28;763;-57
2021/09/13 04:28:40;;;;;;;;;;;;;;;18.07;48.25;100577.28;5107454;27;1164;-57
2021/09/13 04:31:17;;;;;;;;;;;;;;;18.21;49.21;100576.63;5117780;28;1186;-51
2021/09/13 04:33:59;;;;;;;;;;;;;;;18.77;52.60;100583.47;5120477;28;847;-47
2021/09/13 04:36:42;;;;;;;;;;;;;;;19.18;54.98;100582.19;5103711;28;1974;-50
2021/09/13 04:39:26;;;;;;;;;;;;;;;20.02;54.97;100584.28;5118804;28;649;-44
2021/09/13 04:42:09;;;;;;;;;;;;;;;20.15;56.66;100585.44;5117576;28;1131;-57
2021/09/13 04:44:53;;;;;;;;;;;;;;;20.21;57.90;100586.16;5118426;27;996;-53
2021/09/13 04:47:37;;;;;;;;;;;;;;;20.87;56.64;100589.63;5118665;28;612;-56
2021/09/13 04:50:29;;;;;;;;;;;;;;;20.85;57.83;100589.16;5117954;28;1153;-51
2021/09/13 04:53:07;;;;;;;;;;;;;;;21.01;57.75;100597.94;5118646;27;775;-57
2021/09/13 04:55:34;;;;;;;;;;;;;;;21.49;56.63;100589.16;5118023;27;1131;-58
2021/09/13 04:58:01;;;;;;;;;;;;;;;21.44;57.10;100588.47;5138463;27;1222;-59
2021/09/13 05:00:26;;;;;;;;;;;;;;;21.52;57.04;100585.78;5121423;27;969;-57
2021/09/13 05:02:52;;;;;;;;;;;;;;;21.40;57.52;100582.72;5116018;28;1347;-46
2021/09/13 05:05:18;;;;;;;;;;;;;;;21.29;57.23;100598.72;5118720;28;751;-60
2021/09/13 05:07:44;;;;;;;;;;;;;;;20.44;55.94;100590.72;5100298;28;1454;-52
2021/09/13 05:10:09;;;;;;;;;;;;;;;19.47;54.39;100591.16;5118565;28;1003;-58
2021/09/13 05:12:35;;;;;;;;;;;;;;;18.99;52.31;100596.75;5117393;27;1231;-52
2021/09/13 05:15:00;;;;;;;;;;;;;;;18.72;49.36;100586.28;5130586;27;1159;-42
2021/09/13 05:17:26;;;;;;;;;;;;;;;18.19;48.66;100584.31;5137862;27;1993;-57
2021/09/13 05:19:51;;;;;;;;;;;;;;;18.55;50.46;100589.50;5139098;27;775;-50
2021/09/13 05:22:17;;;;;;;;;;;;;;;19.18;52.89;100587.69;5137435;27;1577;-58
2021/09/13 05:24:42;;;;;;;;;;;;;;;19.65;54.84;100586.72;5137683;27;1207;-45
2021/09/13 05:27:10;;;;;;;;;;;;;;;20.12;55.56;100584.09;5137742;27;1151;-46
2021/09/13 05:29:36;;;;;;;;;;;;;;;20.40;56.27;100586.09;5137586;27;1073;-45
2021/09/13 05:32:02;;;;;;;;;;;;;;;20.66;56.57;100591.97;5138492;27;758;-46
2021/09/13 05:34:28;;;;;;;;;;;;;;;20.82;56.98;100585.03;5136773;27;1226;-56
2021/09/13 05:36:53;;;;;;;;;;;;;;;21.15;56.59;100587.69;5137481;27;1974;-47
2021/09/13 05:39:19;;;;;;;;;;;;;;;21.29;56.80;100595.13;5137457;27;1137;-59
2021/09/13 05:41:58;;;;;;;;;;;;;;;21.51;56.47;100595.19;5138634;27;793;-60
2021/09/13 05:44:29;;;;;;;;;;;;;;;21.39;57.38;100591.31;5137065;27;1219;-44
2021/09/13 05:46:58;;;;;;;;;;;;;;;21.78;56.40;100590.72;5136928;27;1274;-44
2021/09/13 05:49:23;;;;;;;;;;;;;;;21.49;55.95;100588.31;5137046;27;1065;-48
2021/09/13 05:51:51;;;;;;;;;;;;;;;20.63;54.38;100587.84;5137312;27;1157;-47
2021/09/13 05:54:25;;;;;;;;;;;;;;;19.63;52.55;100590.94;5137394;27;1283;-51
2021/09/13 05:56:53;;;;;;;;;;;;;;;18.86;50.74;100591.91;5137032;27;1921;-49
2021/09/13 05:59:21;;;;;;;;;;;;;;;18.54;49.45;100582.38;5136699;27;1113;-59
2021/09/13 06:01:48;;;;;;;;;;;;;;;18.36;49.84;100590.22;5136705;27;964;-49
2021/09/13 06:04:14;;;;;;;;;;;;;;;18.86;52.01;100587.22;5138090;27;778;-46
2021/09/13 06:06:40;;;;;;;;;;;;;;;19.70;53.07;100587.78;5137307;27;1319;-49
2021/09/13 06:09:06;;;;;;;;;;;;;;;20.10;54.82;100591.84;5136481;27;1184;-46
2021/09/13 06:11:33;;;;;;;;;;;;;;;20.09;56.53;100590.22;5136697;27;1057;-48
2021/09/13 06:13:59;;;;;;;;;;;;;;;20.55;56.42;100585.81;5135578;27;1272;-47
2021/09/13 06:16:24;;;;;;;;;;;;;;;21.01;56.05;100587.72;5136582;27;1971;-47
2021/09/13 06:18:51;;;;;;;;;;;;;;;21.19;56.32;100590.66;5138282;27;1045;-55
2021/09/13 06:21:18;;;;;;;;;;;;;;;21.19;56.98;100594.22;5137107;27;1605;-59
2021/09/13 06:23:44;;;;;;;;;;;;;;;21.47;56.30;100588.63;5136485;27;1311;-46
2021/09/13 06:26:11;;;;;;;;;;;;;;;21.66;56.25;100596.00;5136754;27;1314;-57
2021/09/13 06:28:41;;;;;;;;;;;;;;;21.59;56.76;100601.13;5134360;27;1339;-45
2021/09/13 06:31:06;;;;;;;;;;;;;;;21.28;56.97;100599.03;5116983;28;787;-47
2021/09/13 06:33:34;;;;;;;;;;;;;;;20.51;56.07;100590.31;5115762;28;1212;-56
2021/09/13 06:36:00;;;;;;;;;;;;;;;20.09;52.99;100584.72;5116371;28;1917;-49
2021/09/13 06:38:32;;;;;;;;;;;;;;;19.18;51.49;100593.19;5115880;27;1265;-50
2021/09/13 06:41:01;;;;;;;;;;;;;;;18.80;49.47;100594.75;5115899;28;1354;-51
2021/09/13 06:43:30;;;;;;;;;;;;;;;18.53;48.79;100588.97;5116829;27;969;-51
2021/09/13 06:46:13;;;;;;;;;;;;;;;18.32;49.66;100596.63;5115461;28;1546;-46
2021/09/13 06:48:39;;;;;;;;;;;;;;;19.36;51.60;100595.16;5117157;28;782;-45
2021/09/13 06:51:04;;;;;;;;;;;;;;;19.92;53.56;100595.47;5115885;28;1191;-49
2021/09/13 06:53:30;;;;;;;;;;;;;;;20.28;54.71;100600.41;5116356;28;755;-47
2021/09/13 06:55:55;;;;;;;;;;;;;;;20.43;56.05;100599.31;5115959;28;1982;-47
2021/09/13 06:58:21;;;;;;;;;;;;;;;20.45;57.26;100602.56;5116992;28;843;-46
2021/09/13 07:00:46;;;;;;;;;;;;;;;20.86;56.82;100604.59;5116140;27;957;-46
2021/09/13 07:03:15;;;;;;;;;;;;;;;21.32;55.83;100603.66;5115377;28;747;-45
2021/09/13 07:05:41;;;;;;;;;;;;;;;21.40;56.38;100606.81;5116964;28;791;-46
2021/09/13 07:08:06;;;;;;;;;;;;;;;21.36;56.74;100609.34;5116352;28;806;-46
2021/09/13 07:10:32;;;;;;;;;;;;;;;21.68;56.24;100604.81;5116694;28;1110;-51
2021/09/13 07:12:59;;;;;;;;;;;;;;;21.67;56.63;100608.69;5116456;28;798;-46
2021/09/13 07:15:25;;;;;;;;;;;;;;;21.75;55.94;100610.72;5116129;27;1016;-52
2021/09/13 07:17:51;;;;;;;;;;;;;;;21.17;56.07;100606.75;5116702;28;1905;-58
2021/09/13 07:20:17;;;;;;;;;;;;;;;20.26;54.62;100599.88;5116615;28;782;-58
2021/09/13 07:22:43;;;;;;;;;;;;;;;19.69;52.49;100609.03;5133505;27;1558;-59
2021/09/13 07:25:08;;;;;;;;;;;;;;;19.12;50.90;100611.75;5136687;27;779;-59
2021/09/13 07:27:34;;;;;;;;;;;;;;;18.67;49.15;100608.38;5135873;27;502;-53
2021/09/13 07:30:01;;;;;;;;;;;;;;;18.22;48.55;100603.84;5122607;27;969;-52
2021/09/13 07:32:27;;;;;;;;;;;;;;;18.28;48.58;100610.13;5116502;28;894;-59
2021/09/13 07:34:52;;;;;;;;;;;;;;;18.92;52.42;100601.78;5116513;28;542;-60
2021/09/13 07:37:18;;;;;;;;;;;;;;;19.38;55.45;100609.47;5116006;28;1999;-56
2021/09/13 07:39:43;;;;;;;;;;;;;;;20.43;54.92;100613.13;5116432;28;819;-60
2021/09/13 07:42:09;;;;;;;;;;;;;;;20.56;56.15;100609.53;5116515;28;775;-58
2021/09/13 07:44:34;;;;;;;;;;;;;;;21.05;56.10;100609.19;5115117;27;1005;-58
2021/09/13 07:47:00;;;;;;;;;;;;;;;21.19;56.59;100616.34;5117082;27;819;-56
2021/09/13 07:49:25;;;;;;;;;;;;;;;21.37;56.44;100611.00;5136973;27;862;-51
2021/09/13 07:51:52;;;;;;;;;;;;;;;21.58;56.18;100607.81;5136250;27;1121;-56
2021/09/13 07:54:18;;;;;;;;;;;;;;;21.70;56.13;100602.56;5136950;27;783;-56
2021/09/13 07:56:43;;;;;;;;;;;;;;;21.85;56.09;100606.88;5136464;27;1914;-53
2021/09/13 07:59:08;;;;;;;;;;;;;;;21.74;56.72;100602.72;5129640;27;964;-48
2021/09/13 08:01:34;;;;;;;;;;;;;;;21.65;56.11;100599.91;5116649;28;795;-56
2021/09/13 08:04:00;;;;;;;;;;;;;;;21.20;54.66;100598.63;5115858;28;803;-47
2021/09/13 08:06:25;;;;;;;;;;;;;;;20.09;54.06;100590.22;5115859;28;755;-56
2021/09/13 08:08:51;;;;;;;;;;;;;;;19.62;51.95;100603.88;5115983;28;1016;-55
2021/09/13 08:11:16;;;;;;;;;;;;;;;19.23;49.95;100593.13;5115989;28;751;-58
2021/09/13 08:13:42;;;;;;;;;;;;;;;18.61;48.85;100591.91;5115225;27;961;-57
2021/09/13 08:16:08;;;;;;;;;;;;;;;18.25;47.91;100596.94;5115851;28;1972;-54
2021/09/13 08:18:34;;;;;;;;;;;;;;;18.45;51.10;100604.19;5116098;28;720;-56
2021/09/13 08:20:59;;;;;;;;;;;;;;;19.63;53.86;100608.28;5119533;28;1565;-57
2021/09/13 08:23:26;;;;;;;;;;;;;;;20.28;55.44;100597.63;5136753;27;836;-46
2021/09/13 08:25:52;;;;;;;;;;;;;;;20.79;56.41;100601.41;5136593;27;815;-57
2021/09/13 08:28:20;;;;;;;;;;;;;;;21.02;56.62;100602.34;5136124;27;838;-58
2021/09/13 08:30:49;;;;;;;;;;;;;;;21.40;56.52;100604.84;5115844;27;1007;-57
2021/09/13 08:33:15;;;;;;;;;;;;;;;21.51;56.50;100600.72;5115788;28;831;-54
2021/09/13 08:35:40;;;;;;;;;;;;;;;21.85;55.81;100595.81;5137124;27;1178;-58
2021/09/13 08:38:06;;;;;;;;;;;;;;;21.71;56.14;100604.16;5134779;27;1981;-57
2021/09/13 08:40:32;;;;;;;;;;;;;;;21.12;56.14;100593.81;5138831;27;1384;-56
2021/09/13 08:42:57;;;;;;;;;;;;;;;20.68;54.61;100592.53;5139718;27;870;-47
2021/09/13 08:53:20;;;;;;;;;;;;;;;18.94;50.76;100588.53;5139967;27;810;-48
2021/09/13 08:55:46;;;;;;;;;;;;;;;18.83;50.37;100592.50;5139492;27;1978;-57
2021/09/13 08:58:12;;;;;;;;;;;;;;;18.56;50.87;100582.88;5139270;27;1005;-57
2021/09/13 09:00:38;;;;;;;;;;;;;;;18.69;51.55;100586.88;5120174;27;1003;-58
2021/09/13 09:03:03;;;;;;;;;;;;;;;19.01;52.02;100582.66;5132787;27;1276;-56
2021/09/13 09:05:29;;;;;;;;;;;;;;;18.92;53.25;100582.50;5139566;27;858;-59
2021/09/13 09:07:54;;;;;;;;;;;;;;;19.03;53.56;100584.03;5139677;27;929;-59
2021/09/13 09:10:25;;;;;;;;;;;;;;;19.22;54.14;100584.03;5139332;27;1179;-60
2021/09/13 09:12:54;;;;;;;;;;;;;;;19.54;54.67;100584.44;5135601;27;1218;-59
2021/09/13 09:15:20;;;;;;;;;;;;;;;20.02;55.58;100581.53;5134472;27;1077;-58
2021/09/13 09:17:45;;;;;;;;;;;;;;;20.41;55.78;100579.44;5139486;27;1992;-60
2021/09/13 09:20:11;;;;;;;;;;;;;;;20.50;56.49;100578.44;5137904;27;1122;-49
2021/09/13 09:22:38;;;;;;;;;;;;;;;20.61;57.12;100581.84;5139401;27;1635;-50
2021/09/13 09:25:05;;;;;;;;;;;;;;;20.83;57.06;100580.31;5139048;27;779;-55
2021/09/13 09:27:31;;;;;;;;;;;;;;;21.06;57.08;100572.94;5137616;27;865;-50
2021/09/13 09:29:56;;;;;;;;;;;;;;;21.63;55.68;100580.00;5126026;27;956;-57
2021/09/13 09:32:23;;;;;;;;;;;;;;;21.24;57.22;100584.19;5117245;28;1282;-49
2021/09/13 09:34:54;;;;;;;;;;;;;;;21.65;55.81;100577.75;5118189;28;885;-50
2021/09/13 09:37:23;;;;;;;;;;;;;;;20.86;55.59;100576.97;5118231;28;1980;-50
2021/09/13 09:39:50;;;;;;;;;;;;;;;20.13;54.16;100573.88;5118176;28;854;-56
2021/09/13 09:42:36;;;;;;;;;;;;;;;19.56;52.31;100573.91;5118220;28;846;-55
2021/09/13 09:45:22;;;;;;;;;;;;;;;18.95;50.98;100568.94;5130799;27;1102;-59
2021/09/13 09:48:03;;;;;;;;;;;;;;;18.49;49.78;100574.16;5146976;27;1312;-58
2021/09/13 09:50:29;;;;;;;;;;;;;;;18.32;49.48;100575.41;5159176;27;874;-55
2021/09/13 09:52:55;;;;;;;;;;;;;;;18.81;52.48;100568.00;5158965;27;767;-58
2021/09/13 09:55:20;;;;;;;;;;;;;;;19.82;54.77;100564.19;5159492;27;763;-58
2021/09/13 09:58:03;;;;;;;;;;;;;;;20.55;55.39;100557.38;5158975;27;1918;-51
2021/09/13 10:00:31;;;;;;;;;;;;;;;21.16;56.17;100569.97;5123892;27;967;-52
2021/09/13 10:03:00;;;;;;;;;;;;;;;21.61;56.07;100568.44;5118214;28;819;-58
2021/09/13 10:05:26;;;;;;;;;;;;;;;21.63;56.41;100560.63;5128769;27;1012;-56
2021/09/13 10:07:52;;;;;;;;;;;;;;;21.85;56.09;100560.66;5138596;27;790;-58
2021/09/13 10:10:18;;;;;;;;;;;;;;;21.45;56.79;100563.25;5138292;27;1251;-57
2021/09/13 10:12:43;;;;;;;;;;;;;;;20.95;55.50;100558.53;5138003;27;835;-57
2021/09/13 10:15:09;;;;;;;;;;;;;;;20.05;53.93;100564.34;5123441;27;984;-57
2021/09/13 10:17:34;;;;;;;;;;;;;;;19.63;52.07;100531.06;5144726;27;1975;-59
2021/09/13 10:20:06;;;;;;;;;;;;;;;19.29;50.17;100556.09;5156017;27;900;-58
2021/09/13 10:22:41;;;;;;;;;;;;;;;18.90;48.60;100559.94;5138114;27;1572;-58
2021/09/13 10:25:06;;;;;;;;;;;;;;;18.38;48.83;100554.16;5138089;27;901;-59
2021/09/13 10:27:39;;;;;;;;;;;;;;;18.24;49.57;100551.25;5137674;27;794;-58
2021/09/13 10:30:10;;;;;;;;;;;;;;;19.00;52.38;100551.56;5123257;27;964;-58
2021/09/13 10:32:35;;;;;;;;;;;;;;;19.99;54.63;100551.75;5117563;28;798;-58
2021/09/13 10:35:01;;;;;;;;;;;;;;;20.87;54.85;100558.44;5117329;28;799;-59
2021/09/13 10:37:37;;;;;;;;;;;;;;;21.13;56.20;100553.19;5117418;28;1969;-59
2021/09/13 10:40:06;;;;;;;;;;;;;;;21.49;56.33;100544.91;5117218;28;783;-59
2021/09/13 10:42:40;;;;;;;;;;;;;;;21.86;56.12;100551.22;5116719;28;789;-58
2021/09/13 10:45:05;;;;;;;;;;;;;;;22.15;55.99;100552.72;5116707;27;953;-58
2021/09/13 10:47:31;;;;;;;;;;;;;;;21.82;56.06;100560.47;5131852;27;1528;-58
2021/09/13 10:50:35;;;;;;;;;;;;;;;21.12;55.38;100549.59;5151609;27;924;-57
2021/09/13 10:53:01;;;;;;;;;;;;;;;20.14;53.63;100543.19;5073839;28;1220;-54
2021/09/13 10:55:30;;;;;;;;;;;;;;;19.49;52.37;100550.31;5073872;28;782;-57
2021/09/13 10:58:03;;;;;;;;;;;;;;;19.13;50.35;100544.47;5115098;27;2030;-58
2021/09/13 11:00:37;;;;;;;;;;;;;;;18.66;49.11;100546.94;5121717;27;813;-58
2021/09/13 11:03:21;;;;;;;;;;;;;;;18.29;48.51;100546.53;5119515;27;1532;-58
2021/09/13 11:05:51;;;;;;;;;;;;;;;18.39;49.51;100544.78;5153613;27;799;-59
2021/09/13 11:08:23;;;;;;;;;;;;;;;19.11;54.92;100547.53;5149019;27;1297;-56
2021/09/13 11:10:49;;;;;;;;;;;;;;;20.15;55.80;100546.78;5154621;27;1152;-58
2021/09/13 11:13:17;;;;;;;;;;;;;;;20.85;56.28;100544.94;5157960;27;802;-47
2021/09/13 11:15:46;;;;;;;;;;;;;;;21.25;56.99;100530.50;5118333;27;960;-46
2021/09/13 11:18:11;;;;;;;;;;;;;;;21.68;56.79;100530.09;5116238;28;1909;-47
2021/09/13 11:20:37;;;;;;;;;;;;;;;21.90;56.66;100540.34;5117655;27;1536;-47
2021/09/13 11:23:03;;;;;;;;;;;;;;;21.89;56.56;100533.16;5136685;27;811;-46
2021/09/13 11:25:28;;;;;;;;;;;;;;;21.58;55.93;100533.13;5136998;27;767;-47
2021/09/13 11:28:01;;;;;;;;;;;;;;;20.66;55.04;100528.41;5136780;27;795;-47
2021/09/13 11:30:41;;;;;;;;;;;;;;;20.03;53.13;100529.88;5118967;27;956;-44
2021/09/13 11:33:07;;;;;;;;;;;;;;;19.25;51.80;100533.00;5116017;28;763;-45
2021/09/13 11:35:34;;;;;;;;;;;;;;;19.00;49.71;100521.25;5115031;28;815;-47
2021/09/13 11:38:00;;;;;;;;;;;;;;;18.71;48.41;100529.56;5116406;28;1971;-45
2021/09/13 11:40:25;;;;;;;;;;;;;;;18.40;48.19;100525.22;5116093;28;791;-45
2021/09/13 11:42:52;;;;;;;;;;;;;;;18.52;49.86;100522.06;5116133;28;999;-47
2021/09/13 11:45:19;;;;;;;;;;;;;;;19.16;54.03;100524.59;5116092;27;1039;-44
2021/09/13 11:47:44;;;;;;;;;;;;;;;20.07;55.35;100515.16;5134200;27;1474;-46
2021/09/13 11:50:13;;;;;;;;;;;;;;;20.90;55.74;100513.59;5119918;27;1495;-56
2021/09/13 11:52:40;;;;;;;;;;;;;;;21.36;56.25;100515.31;5116312;28;779;-46
2021/09/13 11:55:08;;;;;;;;;;;;;;;21.76;56.16;100518.25;5116006;28;815;-46
2021/09/13 11:57:40;;;;;;;;;;;;;;;21.91;56.52;100508.75;5116086;28;1909;-53
2021/09/13 12:00:06;;;;;;;;;;;;;;;21.84;56.56;100511.97;5116960;27;1000;-45
2021/09/13 12:02:37;;;;;;;;;;;;;;;21.49;56.62;100494.25;5138317;27;1489;-49
2021/09/13 12:05:10;;;;;;;;;;;;;;;21.14;55.89;100505.88;5140156;27;812;-57
2021/09/13 12:07:36;;;;;;;;;;;;;;;20.51;54.73;100508.28;5137202;27;752;-48
2021/09/13 12:10:01;;;;;;;;;;;;;;;20.02;52.95;100500.66;5136176;27;1209;-57
2021/09/13 12:12:27;;;;;;;;;;;;;;;19.43;51.57;100503.78;5138723;27;822;-48
2021/09/13 12:14:59;;;;;;;;;;;;;;;18.95;50.00;100496.50;5138351;27;954;-50
2021/09/13 12:17:25;;;;;;;;;;;;;;;18.87;47.97;100497.13;5140343;27;2379;-57
2021/09/13 12:20:09;;;;;;;;;;;;;;;18.37;48.40;100495.53;5139262;27;1420;-46
2021/09/13 12:22:35;;;;;;;;;;;;;;;18.95;52.14;100497.31;5140448;27;1636;-44
2021/09/13 12:25:07;;;;;;;;;;;;;;;20.13;54.05;100496.56;5140260;27;881;-44
2021/09/13 12:27:38;;;;;;;;;;;;;;;20.66;55.87;100486.97;5140259;27;877;-44
2021/09/13 12:30:04;;;;;;;;;;;;;;;21.17;56.07;100485.09;5125937;27;956;-43
2021/09/13 12:32:30;;;;;;;;;;;;;;;21.81;55.43;100484.94;5119426;28;851;-56
2021/09/13 12:34:57;;;;;;;;;;;;;;;21.88;56.05;100476.16;5119730;27;794;-45
2021/09/13 12:37:26;;;;;;;;;;;;;;;21.44;56.52;100489.69;5119599;28;1977;-49
2021/09/13 12:40:01;;;;;;;;;;;;;;;20.90;56.66;100483.19;5119799;27;1174;-61
2021/09/13 12:42:27;;;;;;;;;;;;;;;20.42;55.30;100479.72;5136263;27;1063;-46
2021/09/13 12:44:59;;;;;;;;;;;;;;;19.96;54.02;100488.88;5126444;27;1023;-44
2021/09/13 12:47:24;;;;;;;;;;;;;;;19.70;52.30;100492.06;5118622;28;827;-43
2021/09/13 12:49:51;;;;;;;;;;;;;;;19.27;51.77;100475.66;5133867;27;1094;-45
2021/09/13 12:52:17;;;;;;;;;;;;;;;19.10;50.76;100487.22;5139352;27;830;-43
2021/09/13 12:54:42;;;;;;;;;;;;;;;18.94;50.29;100481.06;5138871;27;791;-47
2021/09/13 12:57:08;;;;;;;;;;;;;;;18.73;50.35;100481.34;5138791;27;1957;-43
2021/09/13 12:59:33;;;;;;;;;;;;;;;18.96;50.42;100471.41;5128718;27;964;-45
2021/09/13 13:01:59;;;;;;;;;;;;;;;18.84;51.75;100483.94;5118473;28;859;-55
2021/09/13 13:04:37;;;;;;;;;;;;;;;19.09;52.63;100478.09;5118346;28;740;-44
2021/09/13 13:07:03;;;;;;;;;;;;;;;19.20;53.08;100469.69;5118429;28;874;-47